createdAt,value
2022-08-26T00:00:37.221Z,100.00
2022-08-26T00:03:41.429Z,100.00
2022-08-26T00:06:46.291Z,100.00
2022-08-26T00:09:50.124Z,100.00
2022-08-26T00:12:57.080Z,100.00
2022-08-26T00:16:00.160Z,100.00
2022-08-26T00:19:02.798Z,100.00
2022-08-26T00:22:05.718Z,100.00
2022-08-26T00:25:09.800Z,100.00
2022-08-26T00:28:12.965Z,100.00
2022-08-26T00:31:16.605Z,100.00
2022-08-26T00:34:19.689Z,100.00
2022-08-26T00:37:22.551Z,100.00
2022-08-26T00:40:32.634Z,100.00
2022-08-26T00:43:47.279Z,100.00
2022-08-26T00:46:52.770Z,100.00
2022-08-26T00:49:56.862Z,100.00
2022-08-26T00:53:01.275Z,100.00
2022-08-26T00:56:07.587Z,100.00
2022-08-26T00:59:12.331Z,100.00
2022-08-26T01:02:21.129Z,100.00
2022-08-26T01:05:24.840Z,100.00
2022-08-26T01:08:27.705Z,100.00
2022-08-26T01:11:30.736Z,100.00
2022-08-26T01:14:34.847Z,100.00
2022-08-26T01:17:40.079Z,100.00
2022-08-26T01:20:47.739Z,100.00
2022-08-26T01:23:57.717Z,100.00
2022-08-26T01:27:02.812Z,100.00
2022-08-26T01:30:11.059Z,100.00
2022-08-26T01:33:17.640Z,100.00
2022-08-26T01:36:20.438Z,100.00
2022-08-26T01:39:23.440Z,100.00
2022-08-26T01:42:29.674Z,100.00
2022-08-26T01:45:33.303Z,100.00
2022-08-26T01:48:38.372Z,100.00
2022-08-26T01:51:41.338Z,100.00
2022-08-26T01:54:46.379Z,100.00
2022-08-26T01:57:56.332Z,100.00
2022-08-26T02:00:59.668Z,100.00
2022-08-26T02:04:06.288Z,100.00
2022-08-26T02:07:09.560Z,100.00
2022-08-26T02:10:12.323Z,100.00
2022-08-26T02:13:18.027Z,100.00
2022-08-26T02:16:22.357Z,100.00
2022-08-26T02:19:29.072Z,100.00
2022-08-26T02:22:32.619Z,100.00
2022-08-26T02:25:48.507Z,100.00
2022-08-26T02:28:53.479Z,100.00
2022-08-26T02:31:56.162Z,100.00
2022-08-26T02:34:58.891Z,100.00
2022-08-26T02:38:02.715Z,100.00
2022-08-26T02:41:13.177Z,100.00
2022-08-26T02:44:17.037Z,100.00
2022-08-26T02:47:19.710Z,100.00
2022-08-26T02:50:28.217Z,100.00
2022-08-26T02:53:31.874Z,100.00
2022-08-26T02:56:38.061Z,100.00
2022-08-26T02:59:40.707Z,100.00
2022-08-26T03:02:43.517Z,100.00
2022-08-26T03:05:47.040Z,100.00
2022-08-26T03:08:50.279Z,100.00
2022-08-26T03:11:54.708Z,100.00
2022-08-26T03:14:57.357Z,100.00
2022-08-26T03:18:01.905Z,100.00
2022-08-26T03:21:08.752Z,100.00
2022-08-26T03:24:12.148Z,100.00
2022-08-26T03:27:14.860Z,100.00
2022-08-26T03:30:36.920Z,100.00
2022-08-26T03:33:40.213Z,100.00
2022-08-26T03:36:43.069Z,100.00
2022-08-26T03:39:45.733Z,100.00
2022-08-26T03:42:48.521Z,100.00
2022-08-26T03:45:51.326Z,100.00
2022-08-26T03:48:55.195Z,100.00
2022-08-26T03:51:57.796Z,100.00
2022-08-26T03:55:00.729Z,100.00
2022-08-26T03:58:03.429Z,100.00
2022-08-26T04:01:06.251Z,100.00
2022-08-26T04:04:15.417Z,100.00
2022-08-26T04:07:18.759Z,100.00
2022-08-26T04:10:28.769Z,100.00
2022-08-26T04:13:32.420Z,100.00
2022-08-26T04:16:35.260Z,100.00
2022-08-26T04:19:38.062Z,100.00
2022-08-26T04:22:41.461Z,100.00
2022-08-26T04:25:44.085Z,100.00
2022-08-26T04:28:47.090Z,100.00
2022-08-26T04:31:50.351Z,100.00
2022-08-26T04:34:58.024Z,100.00
2022-08-26T04:38:04.044Z,100.00
2022-08-26T04:41:14.913Z,100.00
2022-08-26T04:44:18.318Z,100.00
2022-08-26T04:47:20.941Z,100.00
2022-08-26T04:50:25.190Z,100.00
2022-08-26T04:53:28.112Z,100.00
2022-08-26T04:56:32.218Z,100.00
2022-08-26T04:59:38.978Z,100.00
2022-08-26T05:02:42.038Z,100.00
2022-08-26T05:05:46.705Z,100.00
2022-08-26T05:08:49.713Z,100.00
2022-08-26T05:11:52.521Z,100.00
2022-08-26T05:14:55.481Z,100.00
2022-08-26T05:17:58.903Z,100.00
2022-08-26T05:21:03.575Z,100.00
2022-08-26T05:24:07.421Z,100.00
2022-08-26T05:27:11.777Z,100.00
2022-08-26T05:30:14.945Z,100.00
2022-08-26T05:33:18.232Z,100.00
2022-08-26T05:36:22.496Z,100.00
2022-08-26T05:39:25.078Z,100.00
2022-08-26T05:42:28.422Z,100.00
2022-08-26T05:45:33.050Z,100.00
2022-08-26T05:48:35.959Z,100.00
2022-08-26T05:51:39.007Z,100.00
2022-08-26T05:54:42.069Z,100.00
2022-08-26T05:57:45.253Z,100.00
2022-08-26T06:00:55.782Z,100.00
2022-08-26T06:04:01.470Z,100.00
2022-08-26T06:07:05.489Z,100.00
2022-08-26T06:10:31.702Z,100.00
2022-08-26T06:13:35.458Z,100.00
2022-08-26T06:16:40.992Z,100.00
2022-08-26T06:19:43.859Z,100.00
2022-08-26T06:23:05.596Z,100.00
2022-08-26T06:26:10.887Z,100.00
2022-08-26T06:29:14.021Z,100.00
2022-08-26T06:32:27.269Z,100.00
2022-08-26T06:35:29.920Z,100.00
2022-08-26T06:38:33.846Z,100.00
2022-08-26T06:41:43.287Z,100.00
2022-08-26T06:44:47.047Z,100.00
2022-08-26T06:47:49.687Z,100.00
2022-08-26T06:51:02.590Z,98.73
2022-08-26T06:54:05.754Z,98.17
2022-08-26T06:57:09.221Z,97.31
2022-08-26T07:00:13.854Z,95.53
2022-08-26T07:03:16.747Z,96.26
2022-08-26T07:06:21.406Z,95.79
2022-08-26T07:09:27.011Z,95.55
2022-08-26T07:12:30.251Z,94.46
2022-08-26T07:15:36.350Z,93.01
2022-08-26T07:18:39.991Z,91.35
2022-08-26T07:21:44.109Z,90.02
2022-08-26T07:24:46.822Z,89.33
2022-08-26T07:27:54.468Z,89.47
2022-08-26T07:30:57.426Z,85.49
2022-08-26T07:34:00.909Z,82.01
2022-08-26T07:37:08.784Z,83.63
2022-08-26T07:40:13.894Z,83.55
2022-08-26T07:43:19.046Z,82.19
2022-08-26T07:46:27.068Z,82.03
2022-08-26T07:49:32.850Z,78.67
2022-08-26T07:52:37.661Z,77.08
2022-08-26T07:55:40.898Z,77.98
2022-08-26T07:58:45.726Z,75.79
2022-08-26T08:01:50.746Z,75.77
2022-08-26T08:04:54.327Z,73.69
2022-08-26T08:08:00.850Z,72.42
2022-08-26T08:11:20.620Z,72.03
2022-08-26T08:14:23.254Z,70.95
2022-08-26T08:17:25.816Z,71.40
2022-08-26T08:20:29.155Z,68.88
2022-08-26T08:23:32.410Z,69.31
2022-08-26T08:26:35.155Z,66.59
2022-08-26T08:29:37.765Z,64.45
2022-08-26T08:32:43.178Z,65.91
2022-08-26T08:35:45.870Z,65.18
2022-08-26T08:38:48.527Z,64.37
2022-08-26T08:41:58.942Z,64.71
2022-08-26T08:45:05.075Z,63.91
2022-08-26T08:48:13.566Z,61.91
2022-08-26T08:51:20.122Z,61.91
2022-08-26T08:54:25.747Z,61.72
2022-08-26T08:57:33.550Z,60.16
2022-08-26T09:00:41.791Z,59.44
2022-08-26T09:03:50.710Z,58.70
2022-08-26T09:06:55.551Z,58.23
2022-08-26T09:10:01.015Z,57.15
2022-08-26T09:13:05.651Z,57.25
2022-08-26T09:16:10.327Z,56.32
2022-08-26T09:19:18.965Z,56.10
2022-08-26T09:22:29.728Z,53.53
2022-08-26T09:25:32.413Z,52.12
2022-08-26T09:28:40.217Z,52.45
2022-08-26T09:31:43.523Z,52.74
2022-08-26T09:34:53.409Z,51.72
2022-08-26T09:37:56.000Z,51.21
2022-08-26T09:40:59.784Z,49.88
2022-08-26T09:44:14.697Z,48.21
2022-08-26T09:47:21.742Z,48.64
2022-08-26T09:50:28.786Z,47.88
2022-08-26T09:53:33.738Z,42.75
2022-08-26T09:56:38.123Z,41.93
2022-08-26T09:59:42.301Z,43.08
2022-08-26T10:02:47.758Z,41.80
2022-08-26T10:05:57.786Z,41.97
2022-08-26T10:09:08.868Z,40.45
2022-08-26T10:12:16.358Z,41.09
2022-08-26T10:15:20.721Z,41.73
2022-08-26T10:18:28.786Z,39.88
2022-08-26T10:21:36.729Z,40.13
2022-08-26T10:24:45.022Z,40.13
2022-08-26T10:27:54.401Z,38.69
2022-08-26T10:31:00.486Z,38.13
2022-08-26T10:34:03.299Z,38.36
2022-08-26T10:37:13.662Z,36.36
2022-08-26T10:40:22.651Z,37.88
2022-08-26T10:43:26.883Z,37.44
2022-08-26T10:46:36.055Z,37.09
2022-08-26T10:49:40.592Z,36.91
2022-08-26T10:52:50.289Z,35.82
2022-08-26T10:55:58.064Z,34.45
2022-08-26T10:59:06.479Z,34.96
2022-08-26T11:02:22.819Z,34.48
2022-08-26T11:05:27.441Z,32.74
2022-08-26T11:08:30.312Z,33.58
2022-08-26T11:11:45.126Z,33.97
2022-08-26T11:14:56.168Z,34.07
2022-08-26T11:18:03.088Z,33.54
2022-08-26T11:21:36.442Z,33.18
2022-08-26T11:24:44.560Z,30.67
2022-08-26T11:27:55.606Z,30.99
2022-08-26T11:30:58.503Z,31.00
2022-08-26T11:34:02.832Z,31.36
2022-08-26T11:37:12.300Z,30.65
2022-08-26T11:40:17.308Z,31.03
2022-08-26T11:43:23.318Z,30.38
2022-08-26T11:46:27.142Z,29.53
2022-08-26T11:49:32.422Z,30.13
2022-08-26T11:52:36.434Z,29.19
2022-08-26T11:55:42.810Z,29.86
2022-08-26T11:58:47.123Z,29.99
2022-08-26T12:01:50.937Z,29.92
2022-08-26T12:04:54.336Z,29.42
2022-08-26T12:07:59.234Z,28.95
2022-08-26T12:11:03.091Z,29.09
2022-08-26T12:14:15.841Z,29.58
2022-08-26T12:17:19.499Z,29.38
2022-08-26T12:20:45.363Z,29.55
2022-08-26T12:23:50.142Z,29.29
2022-08-26T12:27:14.354Z,28.72
2022-08-26T12:30:19.424Z,28.50
2022-08-26T12:33:23.314Z,28.48
2022-08-26T12:36:28.708Z,28.18
2022-08-26T12:39:35.001Z,28.30
2022-08-26T12:42:41.491Z,28.13
2022-08-26T12:45:54.912Z,29.00
2022-08-26T12:49:00.762Z,27.96
2022-08-26T12:52:04.059Z,27.22
2022-08-26T12:55:17.673Z,27.19
2022-08-26T12:58:25.385Z,27.40
2022-08-26T13:01:35.968Z,27.15
2022-08-26T13:04:40.587Z,27.27
2022-08-26T13:07:43.289Z,27.78
2022-08-26T13:10:47.610Z,27.70
2022-08-26T13:13:56.152Z,27.26
2022-08-26T13:16:59.015Z,27.20
2022-08-26T13:20:04.201Z,27.05
2022-08-26T13:23:07.778Z,26.53
2022-08-26T13:26:10.583Z,26.62
2022-08-26T13:29:13.373Z,27.03
2022-08-26T13:32:17.454Z,27.19
2022-08-26T13:35:20.234Z,26.89
2022-08-26T13:38:33.632Z,26.73
2022-08-26T13:41:36.855Z,26.32
2022-08-26T13:44:40.134Z,26.23
2022-08-26T13:47:43.069Z,26.02
2022-08-26T13:50:46.104Z,25.93
2022-08-26T13:53:49.502Z,26.04
2022-08-26T13:56:52.271Z,25.64
2022-08-26T13:59:56.647Z,24.79
2022-08-26T14:03:00.395Z,25.12
2022-08-26T14:06:03.231Z,24.28
2022-08-26T14:09:06.029Z,24.48
2022-08-26T14:12:09.061Z,24.35
2022-08-26T14:15:12.532Z,24.41
2022-08-26T14:18:17.580Z,23.52
2022-08-26T14:21:21.196Z,24.06
2022-08-26T14:24:24.018Z,24.47
2022-08-26T14:27:27.845Z,23.71
2022-08-26T14:30:31.202Z,23.48
2022-08-26T14:33:34.633Z,23.51
2022-08-26T14:36:40.121Z,23.85
2022-08-26T14:39:42.963Z,24.45
2022-08-26T14:42:52.683Z,24.24
2022-08-26T14:45:58.556Z,23.31
2022-08-26T14:49:03.581Z,23.59
2022-08-26T14:52:10.354Z,23.36
2022-08-26T14:55:13.030Z,23.70
2022-08-26T14:58:16.022Z,23.54
2022-08-26T15:01:21.495Z,23.90
2022-08-26T15:04:24.639Z,23.77
2022-08-26T15:07:27.433Z,22.93
2022-08-26T15:10:36.024Z,23.09
2022-08-26T15:13:39.882Z,23.52
2022-08-26T15:16:42.854Z,23.59
2022-08-26T15:19:46.855Z,23.11
2022-08-26T15:22:49.543Z,22.34
2022-08-26T15:25:53.889Z,22.46
2022-08-26T15:28:56.763Z,22.18
2022-08-26T15:32:01.024Z,22.47
2022-08-26T15:35:08.716Z,22.26
2022-08-26T15:38:12.119Z,22.37
2022-08-26T15:41:14.833Z,22.54
2022-08-26T15:44:17.988Z,22.88
2022-08-26T15:47:21.675Z,22.08
2022-08-26T15:50:25.073Z,21.80
2022-08-26T15:53:29.945Z,21.43
2022-08-26T15:56:33.791Z,21.80
2022-08-26T15:59:37.382Z,21.92
2022-08-26T16:02:40.586Z,21.31
2022-08-26T16:05:43.428Z,21.61
2022-08-26T16:08:46.373Z,21.60
2022-08-26T16:11:49.295Z,21.39
2022-08-26T16:14:53.444Z,21.06
2022-08-26T16:17:58.277Z,21.45
2022-08-26T16:21:12.628Z,21.77
2022-08-26T16:24:17.406Z,22.08
2022-08-26T16:27:20.202Z,21.85
2022-08-26T16:30:26.121Z,22.35
2022-08-26T16:33:29.814Z,22.45
2022-08-26T16:36:33.505Z,22.21
2022-08-26T16:39:44.916Z,22.49
2022-08-26T16:42:48.128Z,22.81
2022-08-26T16:45:50.950Z,22.89
2022-08-26T16:48:53.861Z,23.24
2022-08-26T16:51:56.683Z,23.12
2022-08-26T16:54:59.521Z,23.72
2022-08-26T16:58:02.570Z,24.21
2022-08-26T17:01:05.516Z,24.61
2022-08-26T17:04:11.126Z,24.62
2022-08-26T17:07:13.988Z,24.91
2022-08-26T17:10:16.865Z,24.83
2022-08-26T17:13:28.933Z,25.53
2022-08-26T17:16:38.089Z,25.66
2022-08-26T17:19:46.941Z,26.30
2022-08-26T17:22:51.150Z,26.90
2022-08-26T17:25:54.124Z,27.66
2022-08-26T17:28:58.467Z,28.35
2022-08-26T17:32:01.801Z,29.07
2022-08-26T17:35:05.828Z,29.75
2022-08-26T17:38:11.509Z,30.56
2022-08-26T17:41:15.515Z,31.46
2022-08-26T17:44:18.339Z,32.19
2022-08-26T17:47:21.054Z,32.84
2022-08-26T17:50:23.758Z,33.56
2022-08-26T17:53:26.566Z,33.97
2022-08-26T17:56:29.638Z,34.97
2022-08-26T17:59:32.572Z,35.26
2022-08-26T18:02:37.442Z,35.86
2022-08-26T18:05:41.441Z,36.40
2022-08-26T18:08:44.379Z,37.44
2022-08-26T18:11:47.264Z,38.04
2022-08-26T18:14:50.149Z,38.62
2022-08-26T18:17:52.954Z,39.01
2022-08-26T18:21:01.417Z,39.34
2022-08-26T18:24:05.515Z,39.84
2022-08-26T18:27:08.167Z,40.10
2022-08-26T18:30:16.611Z,40.42
2022-08-26T18:33:20.856Z,40.79
2022-08-26T18:36:24.430Z,41.12
2022-08-26T18:39:27.112Z,41.05
2022-08-26T18:42:29.661Z,41.06
2022-08-26T18:45:32.785Z,40.92
2022-08-26T18:48:36.564Z,41.36
2022-08-26T18:51:39.398Z,41.67
2022-08-26T18:54:45.982Z,42.25
2022-08-26T18:57:48.815Z,42.20
2022-08-26T19:00:51.636Z,42.78
2022-08-26T19:03:54.655Z,43.16
2022-08-26T19:06:57.397Z,43.27
2022-08-26T19:10:00.143Z,43.30
2022-08-26T19:13:04.648Z,44.20
2022-08-26T19:16:14.942Z,43.88
2022-08-26T19:19:18.312Z,44.50
2022-08-26T19:22:22.318Z,44.83
2022-08-26T19:25:24.957Z,45.54
2022-08-26T19:28:27.421Z,45.05
2022-08-26T19:31:30.786Z,45.84
2022-08-26T19:34:33.549Z,46.34
2022-08-26T19:37:36.250Z,46.11
2022-08-26T19:40:39.479Z,46.53
2022-08-26T19:43:42.561Z,46.44
2022-08-26T19:46:45.375Z,47.08
2022-08-26T19:49:52.436Z,47.04
2022-08-26T19:52:55.143Z,47.70
2022-08-26T19:55:57.991Z,47.82
2022-08-26T19:59:01.165Z,48.52
2022-08-26T20:02:07.318Z,48.96
2022-08-26T20:05:14.169Z,48.69
2022-08-26T20:08:22.050Z,48.99
2022-08-26T20:11:25.328Z,49.99
2022-08-26T20:14:28.908Z,49.84
2022-08-26T20:17:31.682Z,50.55
2022-08-26T20:20:53.850Z,50.56
2022-08-26T20:23:58.605Z,51.04
2022-08-26T20:27:07.299Z,51.61
2022-08-26T20:30:11.733Z,51.39
2022-08-26T20:33:14.563Z,51.92
2022-08-26T20:36:17.396Z,52.24
2022-08-26T20:39:20.670Z,52.95
2022-08-26T20:42:23.431Z,52.64
2022-08-26T20:45:26.263Z,53.60
2022-08-26T20:48:29.774Z,53.64
2022-08-26T20:51:32.666Z,53.57
2022-08-26T20:54:35.343Z,53.94
2022-08-26T20:57:38.694Z,54.44
2022-08-26T21:00:41.570Z,54.37
2022-08-26T21:03:44.306Z,54.41
2022-08-26T21:06:52.160Z,55.03
2022-08-26T21:09:55.844Z,54.85
2022-08-26T21:12:58.588Z,55.56
2022-08-26T21:16:01.424Z,55.22
2022-08-26T21:19:04.676Z,55.99
2022-08-26T21:22:07.451Z,56.01
2022-08-26T21:25:10.344Z,56.05
2022-08-26T21:28:13.113Z,55.93
2022-08-26T21:31:17.133Z,56.41
2022-08-26T21:34:20.067Z,56.15
2022-08-26T21:37:23.072Z,56.25
2022-08-26T21:40:26.980Z,56.17
2022-08-26T21:43:35.194Z,56.80
2022-08-26T21:46:39.053Z,56.85
2022-08-26T21:49:43.596Z,56.99
2022-08-26T21:52:47.865Z,57.15
2022-08-26T21:55:50.674Z,57.35
2022-08-26T21:58:54.436Z,57.31
2022-08-26T22:01:57.637Z,57.89
2022-08-26T22:05:00.745Z,58.23
2022-08-26T22:08:04.180Z,58.40
2022-08-26T22:11:06.997Z,58.20
2022-08-26T22:14:09.773Z,58.89
2022-08-26T22:17:12.874Z,58.70
2022-08-26T22:20:16.334Z,59.36
2022-08-26T22:23:20.108Z,59.08
2022-08-26T22:26:25.759Z,59.24
2022-08-26T22:29:28.878Z,59.47
2022-08-26T22:32:31.971Z,60.22
2022-08-26T22:35:37.931Z,60.11
2022-08-26T22:38:40.632Z,59.59
2022-08-26T22:41:44.424Z,59.79
2022-08-26T22:44:47.166Z,59.99
2022-08-26T22:47:49.846Z,60.38
2022-08-26T22:50:57.112Z,60.11
2022-08-26T22:54:02.522Z,60.08
2022-08-26T22:57:05.368Z,60.55
2022-08-26T23:00:11.826Z,60.73
2022-08-26T23:03:15.978Z,61.34
2022-08-26T23:06:19.311Z,61.41
2022-08-26T23:09:22.136Z,61.65
2022-08-26T23:12:27.176Z,61.54
2022-08-26T23:15:30.367Z,62.26
2022-08-26T23:18:33.201Z,61.95
2022-08-26T23:21:36.079Z,62.38
2022-08-26T23:24:41.710Z,62.46
2022-08-26T23:27:44.981Z,62.61
2022-08-26T23:30:47.848Z,62.99
2022-08-26T23:34:09.375Z,63.21
2022-08-26T23:37:13.354Z,63.37
2022-08-26T23:40:18.091Z,63.38
2022-08-26T23:43:21.352Z,63.84
2022-08-26T23:46:24.323Z,63.68
2022-08-26T23:49:28.352Z,63.72
2022-08-26T23:52:51.018Z,64.38
2022-08-26T23:55:54.333Z,63.80
2022-08-26T23:58:57.248Z,64.15
